Time;durP1;ratioP1;P1;durP2;ratioP2;P2;SDS_P1;SDS_P2;PMS_P1;PMS_P2;Temp;Humidity;BMP_temperature;BMP_pressure;BME280_temperature;BME280_humidity;BME280_pressure;Samples;Min_cycle;Max_cycle;Signal;HPM_P1;HPM_P2
2023/04/21 00:02:26;;;;;;;27.20;7.30;;;;;;;9.08;67.48;99003.66;107254;1260;61572;-39
2023/04/21 00:04:55;;;;;;;21.80;7.60;;;;;;;9.09;67.26;99005.91;107217;1257;61895;-38
2023/04/21 00:07:23;;;;;;;18.60;7.30;;;;;;;9.08;67.19;99000.80;107239;1256;75117;-39
2023/04/21 00:09:52;;;;;;;29.30;8.10;;;;;;;9.06;67.19;99000.53;107185;1256;69052;-39
2023/04/21 00:12:20;;;;;;;32.70;8.40;;;;;;;9.04;67.04;99000.26;107077;1256;73680;-39
2023/04/21 00:14:49;;;;;;;26.30;7.90;;;;;;;9.00;66.93;98998.02;107108;1257;61422;-39
2023/04/21 00:17:17;;;;;;;21.00;7.50;;;;;;;9.00;66.84;99002.27;107125;1256;60327;-39
2023/04/21 00:19:46;;;;;;;22.40;7.20;;;;;;;9.03;66.96;98995.67;107179;1256;74553;-39
2023/04/21 00:22:15;;;;;;;22.60;7.10;;;;;;;9.04;67.03;98993.15;107194;1257;69153;-39
2023/04/21 00:24:44;;;;;;;26.40;7.40;;;;;;;9.04;67.04;98994.31;107125;1256;73677;-39
2023/04/21 00:27:14;;;;;;;28.50;7.40;;;;;;;9.03;67.04;98994.77;107220;1256;61308;-38
2023/04/21 00:29:43;;;;;;;27.60;7.90;;;;;;;9.02;67.00;98997.98;107147;1256;61543;-39
2023/04/21 00:32:12;;;;;;;27.50;7.50;;;;;;;8.99;67.07;98998.02;107302;1256;75064;-39
2023/04/21 00:34:40;;;;;;;24.90;6.90;;;;;;;8.97;67.07;99000.57;107218;1257;69067;-39
2023/04/21 00:37:09;;;;;;;23.00;6.80;;;;;;;8.91;66.93;98996.91;107278;1256;72620;-39
2023/04/21 00:39:40;;;;;;;23.60;7.10;;;;;;;8.86;67.03;98996.81;107191;1255;61268;-39
2023/04/21 00:42:08;;;;;;;27.60;7.00;;;;;;;8.80;66.86;98998.56;107177;1256;61535;-39
2023/04/21 00:44:47;;;;;;;25.30;7.00;;;;;;;8.80;66.88;98993.61;107234;1260;75049;-38
2023/04/21 00:47:16;;;;;;;23.20;6.60;;;;;;;8.80;66.79;98992.22;107181;1257;69120;-39
2023/04/21 00:49:45;;;;;;;24.70;6.80;;;;;;;8.79;66.98;98990.80;107227;1258;72888;-39
2023/04/21 00:52:13;;;;;;;22.90;7.00;;;;;;;8.76;67.01;98993.98;107186;1256;61411;-39
2023/04/21 00:54:42;;;;;;;23.60;7.00;;;;;;;8.72;67.02;98993.91;107140;1256;61250;-39
2023/04/21 00:57:11;;;;;;;23.90;7.00;;;;;;;8.67;67.11;98988.72;107011;1256;74441;-39
2023/04/21 00:59:39;;;;;;;23.60;7.10;;;;;;;8.63;67.16;98988.63;107165;1256;69125;-38
2023/04/21 01:02:07;;;;;;;20.10;7.10;;;;;;;8.59;67.26;98986.39;107055;1259;73524;-39
2023/04/21 01:04:38;;;;;;;20.30;7.40;;;;;;;8.53;67.36;98992.35;107156;1256;61591;-39
2023/04/21 01:07:08;;;;;;;25.80;6.40;;;;;;;8.46;67.55;98990.06;107164;1256;61349;-39
2023/04/21 01:09:37;;;;;;;20.60;6.90;;;;;;;8.47;67.41;98988.16;107181;1256;75011;-39
2023/04/21 01:12:07;;;;;;;25.00;6.80;;;;;;;8.50;67.34;98989.83;107170;1256;67968;-39
2023/04/21 01:14:37;;;;;;;22.10;5.90;;;;;;;8.48;67.51;98991.70;107252;1256;73551;-39
2023/04/21 01:17:06;;;;;;;21.00;5.90;;;;;;;8.44;67.69;98990.46;107297;1256;61480;-39
2023/04/21 01:19:40;;;;;;;20.90;6.30;;;;;;;8.39;67.83;98990.44;107277;1257;60448;-39
2023/04/21 01:22:12;;;;;;;20.50;5.70;;;;;;;8.35;67.93;98986.13;106477;1256;1003011;-39
2023/04/21 01:24:46;;;;;;;21.30;6.20;;;;;;;8.31;68.03;98988.42;107260;1256;69021;-39
2023/04/21 01:27:18;;;;;;;24.10;6.10;;;;;;;8.23;68.16;98986.69;107252;1256;71856;-39
2023/04/21 01:29:51;;;;;;;17.80;5.30;;;;;;;8.14;68.44;98988.86;107220;1256;63185;-38
2023/04/21 01:32:22;;;;;;;19.10;4.70;;;;;;;8.12;68.49;98991.84;107270;1256;61521;-39
2023/04/21 01:34:53;;;;;;;18.80;5.10;;;;;;;8.07;68.48;98983.08;107276;1256;74849;-39
2023/04/21 01:37:24;;;;;;;21.40;4.40;;;;;;;8.10;68.48;98991.39;107261;1256;69122;-39
2023/04/21 01:39:54;;;;;;;17.40;5.30;;;;;;;8.09;68.34;98992.84;107296;1255;71780;-39
2023/04/21 01:42:24;;;;;;;;;;;;;;;8.08;68.38;98994.14;107086;1260;60432;-39
2023/04/21 01:44:55;;;;;;;17.50;4.40;;;;;;;8.01;68.49;98990.20;107131;1256;60951;-39
2023/04/21 01:47:23;;;;;;;19.90;4.80;;;;;;;7.96;68.60;98989.14;107143;1257;74882;-39
2023/04/21 01:49:52;;;;;;;12.50;5.40;;;;;;;7.96;68.48;98980.42;107169;1256;69173;-39
2023/04/21 01:52:21;;;;;;;18.60;4.60;;;;;;;7.96;68.38;98980.12;107170;1256;73935;-39
2023/04/21 01:54:50;;;;;;;20.40;4.00;;;;;;;7.96;68.22;98980.66;107227;1256;61712;-38
2023/04/21 01:57:18;;;;;;;21.50;4.80;;;;;;;8.01;68.09;98983.49;107163;1256;61542;-38
2023/04/21 01:59:48;;;;;;;18.50;4.30;;;;;;;8.04;68.05;98979.63;107230;1256;75075;-38
2023/04/21 02:02:17;;;;;;;24.90;5.10;;;;;;;8.07;68.25;98978.52;107097;1256;68131;-38
2023/04/21 02:04:46;;;;;;;16.40;4.40;;;;;;;8.11;68.32;98982.10;107242;1256;72901;-38
2023/04/21 02:07:14;;;;;;;23.30;5.10;;;;;;;8.14;68.21;98981.93;107131;1256;61562;-39
2023/04/21 02:09:42;;;;;;;16.30;4.50;;;;;;;8.14;68.02;98980.77;107148;1256;61315;-38
2023/04/21 02:12:12;;;;;;;21.10;4.40;;;;;;;8.14;68.05;98983.45;107235;1256;74801;-38
2023/04/21 02:14:42;;;;;;;18.80;5.20;;;;;;;8.11;68.18;98979.88;107249;1257;68802;-38
2023/04/21 02:17:12;;;;;;;21.30;4.80;;;;;;;8.12;68.23;98976.48;107183;1256;74009;-38
2023/04/21 02:19:40;;;;;;;20.10;4.40;;;;;;;8.19;68.15;98972.00;107192;1256;63253;-38
2023/04/21 02:22:11;;;;;;;22.10;4.40;;;;;;;8.24;68.03;98969.82;107257;1256;61227;-38
2023/04/21 02:24:40;;;;;;;14.50;4.20;;;;;;;8.28;67.96;98970.76;107228;1255;75066;-38
2023/04/21 02:27:09;;;;;;;18.40;5.10;;;;;;;8.31;67.74;98972.83;107274;1260;67674;-38
2023/04/21 02:29:37;;;;;;;15.20;4.90;;;;;;;8.33;67.48;98970.63;107251;1256;73840;-38
2023/04/21 02:32:08;;;;;;;;;;;;;;;8.32;67.23;98972.93;107222;1256;61260;-38
2023/04/21 02:34:52;;;;;;;24.10;6.90;;;;;;;8.21;67.16;98973.23;107263;1256;61013;-39
2023/04/21 02:37:21;;;;;;;23.30;6.90;;;;;;;8.10;67.15;98966.71;107323;1256;73848;-38
2023/04/21 02:39:53;;;;;;;25.00;6.90;;;;;;;8.03;67.12;98970.34;107223;1256;69155;-39
2023/04/21 02:42:21;;;;;;;19.80;6.60;;;;;;;7.96;67.22;98967.72;107234;1256;73571;-38
2023/04/21 02:44:50;;;;;;;16.80;6.40;;;;;;;7.90;67.29;98966.78;107096;1256;62507;-38
2023/04/21 02:47:18;;;;;;;25.30;7.40;;;;;;;7.89;67.33;98965.92;107086;1256;61500;-38
2023/04/21 02:49:47;;;;;;;15.80;6.50;;;;;;;7.90;67.45;98962.16;107145;1257;73830;-38
2023/04/21 02:52:15;;;;;;;20.30;7.10;;;;;;;7.86;67.73;98967.87;107168;1256;69110;-38
2023/04/21 02:54:44;;;;;;;20.80;6.90;;;;;;;7.82;67.90;98964.54;107241;1256;73624;-38
2023/04/21 02:57:12;;;;;;;20.50;6.90;;;;;;;7.78;67.95;98965.84;107651;1253;61559;-38
2023/04/21 02:59:41;;;;;;;15.80;6.10;;;;;;;7.73;68.11;98962.39;107601;1253;61276;-39
2023/04/21 03:02:09;;;;;;;19.90;7.20;;;;;;;7.67;68.23;98963.40;107599;1253;74919;-38
2023/04/21 03:04:38;;;;;;;26.40;8.10;;;;;;;7.62;68.31;98966.97;107641;1253;69083;-39
2023/04/21 03:07:12;;;;;;;17.80;5.30;;;;;;;7.55;68.61;98973.21;107621;1253;73627;-39
2023/04/21 03:09:41;;;;;;;24.90;7.90;;;;;;;7.52;68.72;98970.34;107624;1252;62961;-39
2023/04/21 03:12:09;;;;;;;29.00;7.30;;;;;;;7.51;68.92;98970.27;107559;1252;61494;-38
2023/04/21 03:14:38;;;;;;;26.40;7.10;;;;;;;7.48;69.05;98970.17;107679;1252;73108;-39
2023/04/21 03:17:07;;;;;;;20.70;6.60;;;;;;;7.43;69.17;98968.52;107642;1256;68930;-39
2023/04/21 03:19:35;;;;;;;20.80;6.80;;;;;;;7.41;69.20;98965.23;107659;1253;74022;-39
2023/04/21 03:22:04;;;;;;;23.00;6.90;;;;;;;7.37;69.30;98966.45;106860;1253;1003692;-40
2023/04/21 03:24:32;;;;;;;22.40;6.50;;;;;;;7.34;69.36;98965.69;107663;1253;61397;-38
2023/04/21 03:27:01;;;;;;;25.30;6.30;;;;;;;7.32;69.45;98967.17;107688;1252;74970;-39
2023/04/21 03:29:31;;;;;;;22.40;5.70;;;;;;;7.29;69.48;98965.80;107528;1253;69003;-39
2023/04/21 03:32:00;;;;;;;25.20;5.20;;;;;;;7.34;69.32;98969.52;107619;1252;73883;-38
2023/04/21 03:34:30;;;;;;;21.00;5.90;;;;;;;7.38;69.22;98967.64;107694;1253;60601;-38
2023/04/21 03:36:59;;;;;;;21.70;5.70;;;;;;;7.38;69.33;98970.87;107611;1253;61247;-39
2023/04/21 03:39:28;;;;;;;18.60;5.70;;;;;;;7.36;69.29;98970.36;107652;1253;75032;-39
2023/04/21 03:41:56;;;;;;;24.50;6.00;;;;;;;7.34;69.47;98970.26;107632;1253;69073;-39
2023/04/21 03:44:26;;;;;;;28.80;5.90;;;;;;;7.32;69.48;98968.03;107460;1253;73509;-39
2023/04/21 03:46:54;;;;;;;22.60;6.20;;;;;;;7.28;69.54;98965.31;107553;1253;60467;-38
2023/04/21 03:49:23;;;;;;;24.40;5.50;;;;;;;7.23;69.67;98966.17;107596;1253;61256;-39
2023/04/21 03:51:52;;;;;;;22.60;5.30;;;;;;;7.24;69.81;98968.98;107563;1253;75090;-38
2023/04/21 03:54:20;;;;;;;23.60;5.30;;;;;;;7.30;69.99;98964.90;107635;1253;69249;-39
2023/04/21 03:56:49;;;;;;;21.20;4.50;;;;;;;7.33;70.04;98969.23;107615;1253;72914;-38
2023/04/21 03:59:17;;;;;;;15.90;5.60;;;;;;;7.34;69.99;98963.39;107607;1252;61387;-38
2023/04/21 04:01:46;;;;;;;22.50;4.80;;;;;;;7.35;69.98;98965.34;107581;1253;61506;-39
2023/04/21 04:04:16;;;;;;;20.30;6.00;;;;;;;7.36;70.05;98967.11;107545;1253;73847;-39
2023/04/21 04:06:44;;;;;;;23.70;6.40;;;;;;;7.34;70.25;98963.30;107622;1253;67660;-39
2023/04/21 04:09:13;;;;;;;30.90;5.70;;;;;;;7.34;70.26;98960.45;107565;1253;73623;-39
2023/04/21 04:11:41;;;;;;;17.90;5.20;;;;;;;7.37;70.31;98958.84;107540;1253;63212;-39
2023/04/21 04:14:10;;;;;;;22.60;5.70;;;;;;;7.45;70.33;98959.00;107613;1253;61314;-38
2023/04/21 04:16:38;;;;;;;19.90;6.20;;;;;;;7.47;70.40;98958.22;107640;1253;74859;-39
2023/04/21 04:19:07;;;;;;;24.60;6.20;;;;;;;7.47;70.60;98959.30;107649;1253;69273;-39
2023/04/21 04:21:36;;;;;;;23.10;6.50;;;;;;;7.49;70.69;98959.58;107643;1253;71923;-38
2023/04/21 04:24:05;;;;;;;21.30;6.80;;;;;;;7.46;70.63;98962.50;107594;1256;61599;-39
2023/04/21 04:26:34;;;;;;;18.70;5.70;;;;;;;7.41;70.92;98963.01;107604;1253;61597;-39
2023/04/21 04:29:04;;;;;;;23.10;6.40;;;;;;;7.42;71.01;98964.88;107643;1253;75045;-39
2023/04/21 04:31:33;;;;;;;22.70;6.30;;;;;;;7.48;71.13;98965.26;107579;1252;69163;-39
2023/04/21 04:34:02;;;;;;;29.30;6.50;;;;;;;7.52;71.17;98964.89;107546;1253;72157;-39
2023/04/21 04:36:31;;;;;;;23.70;7.70;;;;;;;7.52;71.30;98965.35;107620;1253;61591;-39
2023/04/21 04:38:59;;;;;;;22.50;6.50;;;;;;;7.55;71.39;98965.64;107640;1253;61458;-39
2023/04/21 04:41:32;;;;;;;25.20;6.70;;;;;;;7.57;71.44;98966.48;107614;1252;74887;-39
2023/04/21 04:44:03;;;;;;;27.20;6.60;;;;;;;7.61;71.46;98965.42;107576;1256;69060;-39
2023/04/21 04:46:32;;;;;;;23.30;6.20;;;;;;;7.64;71.31;98962.86;107602;1253;73078;-39
2023/04/21 04:49:01;;;;;;;33.80;6.60;;;;;;;7.70;71.28;98962.70;107598;1253;63196;-39
2023/04/21 04:51:31;;;;;;;25.60;6.70;;;;;;;7.79;71.22;98959.77;107558;1253;61573;-39
2023/04/21 04:54:00;;;;;;;24.60;6.70;;;;;;;7.84;71.27;98961.34;107528;1252;74859;-39
2023/04/21 04:56:29;;;;;;;24.00;6.60;;;;;;;7.89;71.27;98961.75;107518;1253;69005;-39
2023/04/21 04:58:57;;;;;;;19.50;5.70;;;;;;;7.95;71.42;98958.67;107532;1252;73625;-39
2023/04/21 05:01:29;;;;;;;26.40;7.00;;;;;;;8.01;71.35;98962.04;107648;1252;61585;-39
2023/04/21 05:03:58;;;;;;;22.10;5.30;;;;;;;8.04;71.08;98963.73;107587;1252;61211;-39
2023/04/21 05:06:27;;;;;;;20.20;6.70;;;;;;;8.10;70.84;98971.50;107644;1256;74812;-39
2023/04/21 05:08:55;;;;;;;25.40;6.60;;;;;;;8.17;70.86;98972.64;107562;1253;68824;-39
2023/04/21 05:11:24;;;;;;;17.80;6.00;;;;;;;8.21;71.01;98976.28;107550;1252;73541;-39
2023/04/21 05:13:52;;;;;;;25.60;6.40;;;;;;;8.23;71.05;98978.27;107598;1253;61497;-40
2023/04/21 05:16:20;;;;;;;22.70;5.80;;;;;;;8.27;71.06;98987.52;107643;1253;61404;-39
2023/04/21 05:18:52;;;;;;;21.30;6.40;;;;;;;8.29;71.00;98990.06;107548;1253;74987;-39
2023/04/21 05:21:26;;;;;;;21.60;5.90;;;;;;;8.28;70.74;98989.05;107549;1253;69224;-39
2023/04/21 05:23:55;;;;;;;22.90;6.60;;;;;;;8.32;70.73;98988.45;107663;1252;73086;-39
2023/04/21 05:26:26;;;;;;;22.70;6.30;;;;;;;8.40;70.88;98986.22;107594;1253;60634;-39
2023/04/21 05:28:55;;;;;;;24.50;6.00;;;;;;;8.46;70.95;98979.63;107700;1253;60310;-39
2023/04/21 05:31:24;;;;;;;20.30;6.10;;;;;;;8.53;71.13;98980.02;107632;1253;73511;-39
2023/04/21 05:33:52;;;;;;;19.40;5.90;;;;;;;8.62;71.30;98975.57;107656;1253;68600;-39
2023/04/21 05:36:21;;;;;;;18.80;5.90;;;;;;;8.74;71.42;98976.89;107611;1253;74274;-38
2023/04/21 05:38:49;;;;;;;23.10;5.60;;;;;;;8.82;71.17;98977.27;107639;1252;62201;-39
2023/04/21 05:41:17;;;;;;;21.50;6.70;;;;;;;8.92;70.88;98971.30;107614;1253;61583;-39
2023/04/21 05:43:46;;;;;;;29.10;6.20;;;;;;;9.04;70.80;98970.67;107539;1253;75457;-39
2023/04/21 05:46:15;;;;;;;31.30;6.50;;;;;;;9.18;70.81;98973.10;107586;1253;69011;-39
2023/04/21 05:48:44;;;;;;;17.70;4.20;;;;;;;9.32;70.66;98974.10;107614;1253;73893;-39
2023/04/21 05:51:14;;;;;;;21.30;5.90;;;;;;;9.45;70.29;98972.17;107595;1253;61599;-39
2023/04/21 05:53:43;;;;;;;;;;;;;;;9.56;69.57;98968.40;107600;1253;61536;-39
2023/04/21 05:56:12;;;;;;;18.50;4.70;;;;;;;9.63;68.87;98970.93;107705;1253;75052;-39
2023/04/21 05:58:40;;;;;;;25.60;5.10;;;;;;;9.75;68.28;98969.09;107605;1253;69185;-39
2023/04/21 06:01:09;;;;;;;23.10;5.20;;;;;;;9.91;67.97;98966.95;107638;1253;73874;-39
2023/04/21 06:03:37;;;;;;;25.80;5.80;;;;;;;10.00;67.02;98963.15;107555;1253;61510;-39
2023/04/21 06:06:08;;;;;;;21.10;5.10;;;;;;;10.07;66.41;98966.72;107583;1253;61025;-39
2023/04/21 06:08:36;;;;;;;22.40;5.90;;;;;;;10.15;66.17;98965.77;107669;1252;73599;-39
2023/04/21 06:11:05;;;;;;;18.00;4.80;;;;;;;10.22;66.34;98964.73;107589;1252;69162;-39
2023/04/21 06:13:34;;;;;;;15.30;5.10;;;;;;;10.31;66.54;98965.92;107574;1253;73621;-39
2023/04/21 06:16:06;;;;;;;20.40;4.60;;;;;;;10.43;66.62;98968.41;107599;1253;63241;-39
2023/04/21 06:18:35;;;;;;;21.40;5.00;;;;;;;10.61;66.22;98971.51;107616;1253;61376;-39
2023/04/21 06:21:04;;;;;;;22.90;4.50;;;;;;;10.82;65.83;98965.41;107602;1257;73623;-39
2023/04/21 06:23:32;;;;;;;19.60;4.40;;;;;;;11.01;65.04;98962.89;107665;1253;69118;-39
2023/04/21 06:26:03;;;;;;;19.30;4.20;;;;;;;11.16;64.30;98966.78;107559;1253;73619;-39
2023/04/21 06:28:33;;;;;;;19.40;4.60;;;;;;;11.33;63.60;98966.70;107525;1253;60496;-38
2023/04/21 06:31:03;;;;;;;18.80;3.90;;;;;;;11.49;62.14;98966.23;107525;1253;60418;-39
2023/04/21 06:33:36;;;;;;;18.20;3.80;;;;;;;11.65;60.75;98968.08;107536;1253;74739;-39
2023/04/21 06:36:05;;;;;;;15.90;3.60;;;;;;;11.81;59.59;98969.77;107524;1253;69110;-39
2023/04/21 06:38:33;;;;;;;14.70;3.40;;;;;;;11.96;58.64;98964.85;107625;1256;72383;-39
2023/04/21 06:41:03;;;;;;;18.10;4.00;;;;;;;12.09;57.56;98965.09;107635;1252;61706;-39
2023/04/21 06:43:31;;;;;;;15.70;4.00;;;;;;;12.19;56.36;98963.60;107603;1253;60701;-39
2023/04/21 06:46:00;;;;;;;16.00;3.50;;;;;;;12.25;55.68;98954.39;107647;1253;75079;-39
2023/04/21 06:48:29;;;;;;;17.80;3.70;;;;;;;12.44;54.77;98958.98;107622;1257;69142;-38
2023/04/21 06:50:59;;;;;;;22.20;3.50;;;;;;;12.57;54.21;98959.75;107603;1253;73859;-40
2023/04/21 06:53:28;;;;;;;18.30;4.10;;;;;;;12.71;54.60;98958.73;107542;1253;61761;-38
2023/04/21 06:55:56;;;;;;;25.10;4.10;;;;;;;12.86;54.20;98951.46;107565;1252;61403;-38
2023/04/21 06:58:25;;;;;;;14.90;3.40;;;;;;;13.00;52.38;98955.17;107630;1253;75050;-38
2023/04/21 07:00:54;;;;;;;16.20;3.80;;;;;;;13.13;51.86;98956.91;107636;1253;69188;-38
2023/04/21 07:03:23;;;;;;;21.90;3.80;;;;;;;13.23;50.39;98956.02;107510;1252;73780;-38
2023/04/21 07:05:52;;;;;;;16.40;3.90;;;;;;;13.30;50.76;98951.91;107530;1253;60550;-38
2023/04/21 07:08:20;;;;;;;24.50;4.50;;;;;;;13.37;50.42;98953.63;107533;1253;61540;-38
2023/04/21 07:10:49;;;;;;;20.40;3.80;;;;;;;13.44;50.89;98948.95;107514;1253;74669;-38
2023/04/21 07:13:18;;;;;;;19.40;4.60;;;;;;;13.51;51.11;98947.88;107520;1253;69150;-38
2023/04/21 07:15:47;;;;;;;17.50;3.80;;;;;;;13.61;51.48;98951.61;107503;1253;73881;-38
2023/04/21 07:18:15;;;;;;;18.70;4.80;;;;;;;13.69;51.52;98947.02;107585;1253;61333;-39
2023/04/21 07:20:44;;;;;;;19.50;5.00;;;;;;;13.77;51.31;98946.48;107601;1253;61225;-39
2023/04/21 07:23:12;;;;;;;15.10;4.20;;;;;;;13.88;50.68;98943.20;107669;1257;74934;-39
2023/04/21 07:25:41;;;;;;;16.90;4.30;;;;;;;14.00;50.48;98946.05;107515;1253;179650;-39
2023/04/21 07:30:23;;;;;;;23.30;4.80;;;;;;;14.25;50.50;98942.19;104226;1291;601199;-38
2023/04/21 07:32:51;;;;;;;28.30;4.90;;;;;;;14.39;50.19;98944.34;106760;1264;61411;-38
2023/04/21 07:35:20;;;;;;;22.30;4.40;;;;;;;14.54;49.25;98947.11;106830;1267;60332;-38
2023/04/21 07:37:49;;;;;;;15.70;4.20;;;;;;;14.65;48.59;98946.99;106803;1269;72234;-38
2023/04/21 07:40:17;;;;;;;17.40;4.60;;;;;;;14.75;47.97;98943.59;106806;1267;67733;-38
2023/04/21 07:42:45;;;;;;;20.40;4.40;;;;;;;14.84;47.74;98943.95;106788;1265;73901;-38
2023/04/21 07:45:14;;;;;;;14.50;4.20;;;;;;;14.95;47.75;98938.73;106666;1264;59889;-38
2023/04/21 07:47:43;;;;;;;20.00;5.20;;;;;;;15.08;46.99;98941.40;106815;1264;61562;-39
2023/04/21 07:50:11;;;;;;;23.10;4.90;;;;;;;15.18;47.45;98938.05;106871;1263;73423;-38
2023/04/21 07:52:40;;;;;;;17.90;3.90;;;;;;;15.27;47.06;98936.69;106780;1264;69236;-38
2023/04/21 07:55:09;;;;;;;16.40;4.20;;;;;;;15.34;46.84;98932.55;106706;1266;73887;-38
2023/04/21 07:57:38;;;;;;;18.00;4.60;;;;;;;15.46;45.45;98933.95;106729;1265;61577;-38
2023/04/21 08:00:09;;;;;;;21.90;4.20;;;;;;;15.55;43.79;98930.09;106787;1265;61548;-37
2023/04/21 08:02:41;;;;;;;22.10;4.80;;;;;;;15.60;44.05;98935.67;106747;1265;74192;-37
2023/04/21 08:05:10;;;;;;;19.80;4.40;;;;;;;15.63;43.13;98935.16;106749;1265;68914;-37
2023/04/21 08:07:39;;;;;;;24.20;5.80;;;;;;;15.58;42.88;98932.17;106785;1266;73624;-37
2023/04/21 08:10:09;;;;;;;21.00;5.10;;;;;;;15.53;43.11;98936.36;106806;1264;61679;-37
2023/04/21 08:12:38;;;;;;;;;;;;;;;15.55;43.62;98933.21;106824;1266;60146;-37
2023/04/21 08:15:07;;;;;;;21.00;4.30;;;;;;;15.54;43.73;98933.14;106822;1263;74255;-37
2023/04/21 08:17:36;;;;;;;19.50;4.40;;;;;;;15.47;43.36;98926.69;106775;1265;67984;-38
2023/04/21 08:20:06;;;;;;;15.00;5.00;;;;;;;15.44;43.91;98929.84;106718;1266;73899;-39
2023/04/21 08:22:35;;;;;;;20.30;4.80;;;;;;;15.44;43.79;98923.74;106947;1262;60385;-38
2023/04/21 08:25:04;;;;;;;18.10;3.30;;;;;;;15.52;43.92;98925.25;107118;1262;59562;-37
2023/04/21 08:27:38;;;;;;;17.40;4.40;;;;;;;15.59;42.91;98927.95;106879;1261;74255;-37
2023/04/21 08:30:08;;;;;;;20.50;4.40;;;;;;;15.59;42.45;98929.19;107067;1263;69589;-37
2023/04/21 08:32:37;;;;;;;16.90;4.40;;;;;;;15.54;42.91;98926.98;107000;1264;73902;-37
2023/04/21 08:35:07;;;;;;;17.10;4.40;;;;;;;15.47;43.31;98921.30;107071;1261;60021;-37
2023/04/21 08:37:36;;;;;;;11.60;3.80;;;;;;;15.34;43.36;98932.95;107078;1260;61548;-37
2023/04/21 08:40:05;;;;;;;28.20;6.10;;;;;;;15.19;43.78;98932.73;107117;1260;72715;-37
2023/04/21 08:42:35;;;;;;;18.80;4.70;;;;;;;15.07;44.12;98936.64;107056;1260;68696;-37
2023/04/21 08:45:05;;;;;;;;;;;;;;;14.97;44.35;98936.08;107034;1260;74963;-37
2023/04/21 08:47:37;;;;;;;20.40;4.40;;;;;;;14.90;45.30;98935.25;107041;1260;60422;-37
2023/04/21 08:50:13;;;;;;;15.30;4.50;;;;;;;14.86;44.77;98933.48;107036;1260;61321;-37
2023/04/21 08:52:41;;;;;;;21.00;5.00;;;;;;;14.81;44.79;98934.05;107049;1260;74277;-37
2023/04/21 08:55:10;;;;;;;17.50;4.50;;;;;;;14.77;45.56;98935.02;107033;1260;68134;-37
2023/04/21 08:57:38;;;;;;;15.70;4.40;;;;;;;14.80;44.95;98937.50;107072;1260;73839;-37
2023/04/21 09:00:08;;;;;;;16.30;4.10;;;;;;;14.80;45.25;98938.58;106971;1265;61375;-37
2023/04/21 09:02:57;;;;;;;17.30;4.00;;;;;;;14.83;45.27;98936.48;106909;1260;60327;-37
2023/04/21 09:05:32;;;;;;;14.00;4.10;;;;;;;14.92;45.81;98940.85;106852;1260;74220;-37
2023/04/21 09:08:11;;;;;;;17.00;4.10;;;;;;;14.97;45.00;98930.38;107218;1257;67400;-37
2023/04/21 09:10:49;;;;;;;19.10;3.50;;;;;;;15.14;44.78;98932.54;107217;1257;73881;-37
2023/04/21 09:13:33;;;;;;;13.20;3.70;;;;;;;15.22;43.35;98924.30;107185;1257;61640;-37
2023/04/21 09:16:03;;;;;;;19.80;4.10;;;;;;;15.27;41.78;98931.45;107224;1257;61776;-37
2023/04/21 09:18:36;;;;;;;16.20;3.30;;;;;;;15.32;41.42;98928.28;107218;1257;74296;-37
2023/04/21 09:21:11;;;;;;;13.90;4.30;;;;;;;15.44;42.07;98926.33;107172;1257;69163;-37
2023/04/21 09:23:41;;;;;;;17.60;4.00;;;;;;;15.65;42.74;98925.63;107360;1258;73615;-37
2023/04/21 09:26:10;;;;;;;17.40;3.90;;;;;;;15.89;41.79;98924.70;107296;1262;61157;-37
2023/04/21 09:28:42;;;;;;;15.60;3.60;;;;;;;16.14;40.17;98921.73;107326;1257;60085;-37
2023/04/21 09:31:15;;;;;;;15.90;3.80;;;;;;;16.29;40.82;98927.90;107279;1257;74172;-37
2023/04/21 09:33:56;;;;;;;16.90;3.80;;;;;;;16.42;40.99;98929.23;107284;1257;69248;-37
2023/04/21 09:36:29;;;;;;;20.30;3.70;;;;;;;16.55;38.86;98919.06;107280;1257;72999;-37
2023/04/21 09:39:02;;;;;;;19.10;3.30;;;;;;;16.51;39.23;98926.48;107281;1257;61510;-37
2023/04/21 09:41:51;;;;;;;16.20;3.60;;;;;;;16.40;39.43;98939.35;107267;1257;60469;-37
2023/04/21 09:44:19;;;;;;;17.60;3.80;;;;;;;16.27;39.98;98939.95;107279;1257;74224;-37
2023/04/21 09:46:49;;;;;;;13.60;3.50;;;;;;;16.16;40.34;98943.05;107295;1263;67650;-37
2023/04/21 09:49:18;;;;;;;17.50;3.20;;;;;;;16.02;40.42;98944.89;107249;1262;73759;-37
2023/04/21 09:51:46;;;;;;;15.50;3.80;;;;;;;15.88;40.36;98946.83;107185;1257;60392;-37
2023/04/21 09:54:35;;;;;;;17.50;2.90;;;;;;;15.66;40.52;98950.30;107225;1257;61519;-37
2023/04/21 09:57:04;;;;;;;21.30;4.10;;;;;;;15.50;41.11;98949.09;107226;1257;74146;-37
2023/04/21 09:59:37;;;;;;;17.10;3.60;;;;;;;15.38;41.07;98948.84;107146;1258;69133;-37
2023/04/21 10:02:06;;;;;;;14.30;3.20;;;;;;;15.22;41.78;98949.50;107215;1257;73682;-37
2023/04/21 10:04:35;;;;;;;15.00;3.60;;;;;;;15.06;42.54;98951.93;107174;1257;60944;-36
2023/04/21 10:07:05;;;;;;;19.70;3.60;;;;;;;14.92;42.86;98952.88;107260;1257;61357;-36
2023/04/21 10:09:39;;;;;;;;;;;;;;;14.76;43.41;98957.39;107279;1257;72311;-37
2023/04/21 10:12:08;;;;;;;17.00;4.20;;;;;;;14.59;44.03;98959.80;107338;1262;69150;-37
2023/04/21 10:14:37;;;;;;;14.60;3.70;;;;;;;14.47;43.96;98958.05;107243;1260;73822;-37
2023/04/21 10:17:07;;;;;;;18.40;3.40;;;;;;;14.41;44.02;98958.30;107067;1258;60387;-37
2023/04/21 10:19:38;;;;;;;;;;;;;;;14.29;44.70;98957.61;107130;1257;62323;-36
2023/04/21 10:22:10;;;;;;;15.10;3.50;;;;;;;14.16;44.90;98960.59;107046;1259;74217;-37
2023/04/21 10:24:41;;;;;;;13.40;3.20;;;;;;;14.05;45.48;98959.59;107091;1259;69215;-37
2023/04/21 10:27:10;;;;;;;13.80;3.40;;;;;;;14.07;45.81;98958.82;107136;1256;71732;-37
2023/04/21 10:29:39;;;;;;;25.10;3.90;;;;;;;14.10;45.47;98953.91;107082;1259;61259;-38
2023/04/21 10:32:44;;;;;;;12.20;3.30;;;;;;;14.16;46.14;98954.67;107043;1256;62013;-38
2023/04/21 10:35:23;;;;;;;16.90;3.50;;;;;;;14.30;46.13;98961.58;107189;1257;74205;-38
2023/04/21 10:37:51;;;;;;;12.40;3.30;;;;;;;14.42;46.14;98963.36;107089;1260;69117;-38
2023/04/21 10:40:38;;;;;;;16.80;3.10;;;;;;;14.50;45.97;98964.20;107148;1261;73569;-37
2023/04/21 10:43:44;;;;;;;17.30;3.50;;;;;;;14.55;45.77;98967.54;107199;1256;60657;-38
2023/04/21 10:46:39;;;;;;;12.10;3.00;;;;;;;14.52;46.08;98968.88;107217;1256;61541;-38
2023/04/21 10:49:09;;;;;;;14.30;3.40;;;;;;;14.48;45.76;98965.30;107053;1259;74239;-38
2023/04/21 10:52:01;;;;;;;;;;;;;;;14.50;45.93;98971.60;107086;1259;69023;-36
2023/04/21 10:54:44;;;;;;;14.50;3.50;;;;;;;14.53;46.36;98964.20;107016;1263;73861;-36
2023/04/21 10:57:16;;;;;;;15.90;3.10;;;;;;;14.63;45.89;98966.41;107089;1261;60130;-36
2023/04/21 10:59:46;;;;;;;23.00;3.60;;;;;;;14.71;45.37;98963.65;107047;1259;61639;-36
2023/04/21 11:02:16;;;;;;;14.00;3.40;;;;;;;14.84;45.65;98966.86;107186;1260;72719;-37
2023/04/21 11:04:48;;;;;;;;;;;;;;;15.05;45.07;98963.48;107145;1261;67932;-37
2023/04/21 11:07:18;;;;;;;15.90;3.30;;;;;;;15.19;44.73;98972.70;107180;1257;73910;-36
2023/04/21 11:09:49;;;;;;;17.40;3.30;;;;;;;15.17;43.90;98971.14;107188;1260;61590;-36
2023/04/21 11:12:18;;;;;;;18.20;3.60;;;;;;;14.97;43.82;98977.25;107293;1257;60676;-38
2023/04/21 11:14:46;;;;;;;13.80;3.40;;;;;;;14.73;44.58;98978.84;107266;1257;74012;-36
2023/04/21 11:17:19;;;;;;;12.50;3.00;;;;;;;14.52;44.69;98982.50;107250;1257;68891;-36
2023/04/21 11:19:50;;;;;;;16.90;3.50;;;;;;;14.16;45.04;98957.58;107212;1257;73843;-36
2023/04/21 11:22:25;;;;;;;9.20;3.20;;;;;;;14.20;45.93;98979.44;107221;1259;61365;-37
2023/04/21 11:24:55;;;;;;;17.80;3.90;;;;;;;14.07;46.17;98977.82;107149;1259;61749;-36
2023/04/21 11:27:27;;;;;;;12.10;3.40;;;;;;;13.97;46.48;98981.57;107602;1257;73349;-37
2023/04/21 11:29:56;;;;;;;21.30;3.80;;;;;;;13.99;46.91;98975.81;107217;1259;69137;-36
2023/04/21 11:32:24;;;;;;;18.80;3.40;;;;;;;14.21;46.83;98977.16;107098;1260;73425;-36
2023/04/21 11:34:53;;;;;;;8.20;2.90;;;;;;;14.59;45.66;98975.55;107057;1258;59651;-36
2023/04/21 11:37:24;;;;;;;16.00;3.50;;;;;;;14.99;44.57;98972.88;107179;1259;61589;-36
2023/04/21 11:39:57;;;;;;;16.10;3.60;;;;;;;15.27;43.04;98969.13;107052;1259;73347;-36
2023/04/21 11:42:25;;;;;;;11.20;3.10;;;;;;;15.41;42.74;98967.79;107251;1258;68790;-36